ドーハ の空港の天気 - METARとTAF

ドーハ国際空港 ( OTBD / DOH ) - カタール ドーハ
飛行場実況気象(Metar)
観測時間05/28 15:00 +03 (05/28 12:00 UTC)
風向・風速北 4m/s
視程9000m
天気現象
なし
気温38℃
湿度40%
気圧1002hPa
METAROTBD 281200Z 36008KT 9000 NSC 38/22 Q1002 NOSIG
過去の天気等 Google飛行場航空写真 Wunderground天気予報

過去48時間のMETAR

飛行場予報(TAF)
発表時間: 5/28 13:53 +03 (5/28 10:53 UTC)
予報対象時間: 28日15時 +03 ~ 29日21時 +03
風向・風速北 5m/s
視程8,000m
なし
29日9時 +03 ~ 29日11時 +03 に徐々に
風向・風速北北西 9m/s
29日10時 +03 ~ 29日15時 +03 に 確率 30% で一時的に
視程5,000m
天気現象風塵
TAF OTBD 281053Z 2812/2918 36010KT 8000 NSC
BECMG 2906/2908 33018KT
PROB30 TEMPO 2907/2912 5000 DU